createdAt,value
2019-01-19T00:01:12.350Z,21.00
2019-01-19T00:04:16.061Z,22.87
2019-01-19T00:07:02.183Z,24.67
2019-01-19T00:09:49.563Z,20.93
2019-01-19T00:12:21.141Z,19.70
2019-01-19T00:14:49.801Z,18.63
2019-01-19T00:17:39.419Z,19.67
2019-01-19T00:20:22.845Z,16.70
2019-01-19T00:23:06.215Z,16.90
2019-01-19T00:25:54.206Z,16.50
2019-01-19T00:28:28.687Z,17.57
2019-01-19T00:31:00.183Z,14.23
2019-01-19T00:33:50.481Z,14.97
2019-01-19T00:36:24.633Z,14.40
2019-01-19T00:39:04.838Z,16.57
2019-01-19T00:41:52.882Z,14.97
2019-01-19T00:44:42.539Z,13.67
2019-01-19T00:47:20.042Z,16.87
2019-01-19T00:49:51.599Z,18.17
2019-01-19T00:52:35.207Z,14.57
2019-01-19T00:55:15.539Z,17.17
2019-01-19T00:57:58.789Z,14.57
2019-01-19T01:00:30.309Z,15.63
2019-01-19T01:03:13.626Z,13.60
2019-01-19T01:05:45.199Z,13.50
2019-01-19T01:08:37.747Z,11.97
2019-01-19T01:11:24.429Z,12.00
2019-01-19T01:14:17.071Z,10.67
2019-01-19T01:16:54.503Z,10.13
2019-01-19T01:19:32.860Z,9.07
2019-01-19T01:22:04.640Z,9.87
2019-01-19T01:24:45.774Z,9.13
2019-01-19T01:27:25.832Z,11.50
2019-01-19T01:30:21.388Z,8.23
2019-01-19T01:32:52.966Z,8.77
2019-01-19T01:35:36.281Z,10.67
2019-01-19T01:38:07.810Z,8.33
2019-01-19T01:40:53.759Z,10.77
2019-01-19T01:43:25.330Z,9.00
2019-01-19T01:46:02.577Z,8.53
2019-01-19T01:48:53.342Z,10.23
2019-01-19T01:51:31.565Z,8.83
2019-01-19T01:54:26.068Z,11.50
2019-01-19T01:56:56.646Z,9.13
2019-01-19T01:59:37.005Z,7.67
2019-01-19T02:02:14.638Z,8.13
2019-01-19T02:05:02.746Z,9.03
2019-01-19T02:07:43.209Z,11.00
2019-01-19T02:10:31.083Z,9.40
2019-01-19T02:13:11.643Z,11.47
2019-01-19T02:16:05.871Z,8.57
2019-01-19T02:18:39.948Z,9.77
2019-01-19T02:21:18.895Z,7.93
2019-01-19T02:23:56.208Z,10.43
2019-01-19T02:26:49.015Z,12.83
2019-01-19T02:29:38.637Z,10.17
2019-01-19T02:32:10.224Z,7.77
2019-01-19T02:34:50.911Z,7.77
2019-01-19T02:37:28.319Z,8.10
2019-01-19T02:40:09.755Z,7.90
2019-01-19T02:42:50.158Z,7.73
2019-01-19T02:45:27.398Z,8.90
2019-01-19T02:48:07.597Z,8.10
2019-01-19T02:50:51.233Z,8.13
2019-01-19T02:53:34.709Z,6.13
2019-01-19T02:56:18.129Z,6.10
2019-01-19T02:58:52.417Z,6.27
2019-01-19T03:01:26.882Z,5.47
2019-01-19T03:04:10.161Z,6.50
2019-01-19T03:06:47.369Z,6.97
2019-01-19T03:09:30.787Z,5.70
2019-01-19T03:12:02.258Z,6.47
2019-01-19T03:14:42.529Z,5.70
2019-01-19T03:17:22.631Z,5.20
2019-01-19T03:19:56.961Z,5.43
2019-01-19T03:22:44.976Z,6.43
2019-01-19T03:25:22.366Z,5.33
2019-01-19T03:28:02.907Z,5.37
2019-01-19T03:30:49.950Z,7.30
2019-01-19T03:33:27.247Z,6.93
2019-01-19T03:36:19.985Z,6.87
2019-01-19T03:38:54.027Z,6.67
2019-01-19T03:41:26.187Z,6.97
2019-01-19T03:44:09.337Z,6.23
2019-01-19T03:47:12.352Z,6.67
2019-01-19T03:50:06.156Z,6.00
2019-01-19T03:52:46.343Z,8.83
2019-01-19T03:55:34.337Z,6.27
2019-01-19T03:58:40.441Z,5.83
2019-01-19T04:01:33.085Z,6.73
2019-01-19T04:04:13.352Z,6.67
2019-01-19T04:06:47.715Z,6.03
2019-01-19T04:09:41.801Z,6.97
2019-01-19T04:12:21.851Z,5.73
2019-01-19T04:14:59.119Z,6.43
2019-01-19T04:17:47.427Z,7.53
2019-01-19T04:20:21.792Z,6.70
2019-01-19T04:22:50.284Z,5.63
2019-01-19T04:25:22.090Z,6.33
2019-01-19T04:27:53.093Z,6.63
2019-01-19T04:30:21.606Z,7.57
2019-01-19T04:32:50.136Z,7.50
2019-01-19T04:35:18.700Z,8.07
2019-01-19T04:37:47.153Z,6.70
2019-01-19T04:40:15.695Z,6.40
2019-01-19T04:42:44.881Z,6.90
2019-01-19T04:45:13.608Z,9.10
2019-01-19T04:47:42.088Z,5.53
2019-01-19T04:50:11.572Z,4.70
2019-01-19T04:52:40.081Z,5.07
2019-01-19T04:55:08.705Z,6.20
2019-01-19T04:57:37.598Z,6.80
2019-01-19T05:00:11.557Z,5.73
2019-01-19T05:02:40.094Z,6.60
2019-01-19T05:05:08.697Z,6.40
2019-01-19T05:07:37.124Z,6.30
2019-01-19T05:10:08.905Z,6.17
2019-01-19T05:12:37.365Z,6.60
2019-01-19T05:15:08.997Z,6.70
2019-01-19T05:17:37.691Z,5.77
2019-01-19T05:20:09.269Z,4.30
2019-01-19T05:22:37.760Z,5.70
2019-01-19T05:25:08.661Z,5.07
2019-01-19T05:27:37.102Z,4.90
2019-01-19T05:30:16.717Z,5.97
2019-01-19T05:32:47.107Z,6.90
2019-01-19T05:35:15.825Z,5.97
2019-01-19T05:37:44.254Z,8.63
2019-01-19T05:40:14.125Z,7.00
2019-01-19T05:42:42.613Z,6.13
2019-01-19T05:45:13.404Z,7.03
2019-01-19T05:47:41.926Z,7.60
2019-01-19T05:50:19.324Z,7.30
2019-01-19T05:52:47.818Z,7.07
2019-01-19T05:55:16.342Z,5.10
2019-01-19T05:57:44.797Z,6.07
2019-01-19T06:00:19.320Z,6.03
2019-01-19T06:02:47.805Z,6.13
2019-01-19T06:05:16.791Z,7.10
2019-01-19T06:07:45.282Z,5.80
2019-01-19T06:10:17.520Z,6.67
2019-01-19T06:12:46.369Z,6.73
2019-01-19T06:15:16.448Z,6.73
2019-01-19T06:17:44.962Z,6.43
2019-01-19T06:20:17.708Z,7.07
2019-01-19T06:22:46.164Z,6.40
2019-01-19T06:25:16.147Z,6.33
2019-01-19T06:27:44.749Z,5.80
2019-01-19T06:30:19.742Z,5.53
2019-01-19T06:32:49.628Z,6.87
2019-01-19T06:35:18.227Z,7.13
2019-01-19T06:37:46.888Z,6.83
2019-01-19T06:40:17.480Z,6.23
2019-01-19T06:42:46.246Z,6.30
2019-01-19T06:45:20.270Z,7.53
2019-01-19T06:47:48.777Z,6.97
2019-01-19T06:50:18.610Z,7.13
2019-01-19T06:52:47.296Z,6.43
2019-01-19T06:55:21.475Z,6.53
2019-01-19T06:57:49.914Z,7.67
2019-01-19T07:00:19.016Z,8.60
2019-01-19T07:02:47.504Z,6.17
2019-01-19T07:05:16.185Z,7.17
2019-01-19T07:07:44.715Z,6.67
2019-01-19T07:10:15.804Z,5.70
2019-01-19T07:12:44.347Z,6.40
2019-01-19T07:15:14.027Z,6.53
2019-01-19T07:17:44.356Z,6.83
2019-01-19T07:20:15.396Z,6.40
2019-01-19T07:22:43.946Z,5.80
2019-01-19T07:25:12.554Z,5.53
2019-01-19T07:27:41.171Z,7.37
2019-01-19T07:30:12.856Z,8.67
2019-01-19T07:32:41.290Z,6.93
2019-01-19T07:35:13.170Z,6.00
2019-01-19T07:37:41.693Z,5.87
2019-01-19T07:40:13.096Z,8.17
2019-01-19T07:42:42.758Z,6.53
2019-01-19T07:45:13.648Z,8.97
2019-01-19T07:47:43.366Z,6.27
2019-01-19T07:50:16.702Z,7.47
2019-01-19T07:52:45.282Z,7.47
2019-01-19T07:55:16.683Z,6.93
2019-01-19T07:57:45.092Z,8.23
2019-01-19T08:00:28.748Z,7.80
2019-01-19T08:02:57.278Z,7.13
2019-01-19T08:05:25.916Z,7.03
2019-01-19T08:07:54.529Z,6.03
2019-01-19T08:10:22.977Z,7.97
2019-01-19T08:12:52.131Z,8.40
2019-01-19T08:15:23.324Z,7.33
2019-01-19T08:17:54.053Z,7.90
2019-01-19T08:20:23.669Z,9.03
2019-01-19T08:23:15.200Z,9.60
2019-01-19T08:25:49.213Z,9.47
2019-01-19T08:28:17.624Z,10.07
2019-01-19T08:30:49.039Z,8.40
2019-01-19T08:33:18.006Z,9.77
2019-01-19T08:35:48.177Z,9.80
2019-01-19T08:38:16.685Z,8.13
2019-01-19T08:40:51.982Z,9.87
2019-01-19T08:43:22.304Z,9.53
2019-01-19T08:45:50.801Z,10.73
2019-01-19T08:48:19.692Z,8.83
2019-01-19T08:50:48.173Z,8.90
2019-01-19T08:53:16.631Z,8.53
2019-01-19T08:55:45.206Z,8.10
2019-01-19T08:58:13.768Z,8.13
2019-01-19T09:00:42.217Z,7.63
2019-01-19T09:03:10.795Z,6.50
2019-01-19T09:05:40.717Z,7.20
2019-01-19T09:08:09.212Z,8.43
2019-01-19T09:10:37.731Z,5.20
2019-01-19T09:13:06.298Z,6.30
2019-01-19T09:15:35.003Z,6.23
2019-01-19T09:18:07.844Z,5.53
2019-01-19T09:20:38.294Z,6.23
2019-01-19T09:23:10.905Z,5.60
2019-01-19T09:25:39.716Z,8.03
2019-01-19T09:28:08.174Z,7.27
2019-01-19T09:30:36.713Z,4.60
2019-01-19T09:33:06.712Z,4.67
2019-01-19T09:35:35.226Z,4.87
2019-01-19T09:38:04.171Z,5.00
2019-01-19T09:40:32.588Z,4.97
2019-01-19T09:43:01.256Z,5.93
2019-01-19T09:45:29.918Z,6.43
2019-01-19T09:47:58.613Z,5.07
2019-01-19T09:50:27.314Z,5.23
2019-01-19T09:52:55.942Z,6.30
2019-01-19T09:55:25.619Z,4.23
2019-01-19T09:57:54.088Z,6.60
2019-01-19T10:00:24.665Z,4.67
2019-01-19T10:02:53.227Z,4.60
2019-01-19T10:05:27.647Z,6.13
2019-01-19T10:07:56.201Z,4.97
2019-01-19T10:10:25.867Z,4.20
2019-01-19T10:12:54.468Z,4.20
2019-01-19T10:15:23.279Z,4.10
2019-01-19T10:17:51.916Z,6.17
2019-01-19T10:20:31.872Z,6.03
2019-01-19T10:23:07.952Z,4.90
2019-01-19T10:25:38.569Z,4.03
2019-01-19T10:28:07.363Z,5.60
2019-01-19T10:30:35.898Z,4.63
2019-01-19T10:33:04.486Z,4.37
2019-01-19T10:35:34.520Z,4.20
2019-01-19T10:38:05.893Z,4.83
2019-01-19T10:40:34.532Z,4.63
2019-01-19T10:43:06.055Z,5.83
2019-01-19T10:45:36.274Z,3.97
2019-01-19T10:48:06.707Z,5.43
2019-01-19T10:50:35.551Z,5.30
2019-01-19T10:53:08.657Z,3.97
2019-01-19T10:55:38.699Z,4.80
2019-01-19T10:58:07.325Z,5.03
2019-01-19T11:00:36.724Z,4.73
2019-01-19T11:03:11.328Z,4.10
2019-01-19T11:05:39.834Z,3.50
2019-01-19T11:08:09.974Z,4.67
2019-01-19T11:10:38.465Z,5.67
2019-01-19T11:13:06.912Z,5.03
2019-01-19T11:15:35.518Z,5.07
2019-01-19T11:18:04.142Z,5.47
2019-01-19T11:20:32.766Z,4.97
2019-01-19T11:23:02.048Z,5.03
2019-01-19T11:25:30.963Z,6.17
2019-01-19T11:27:59.467Z,4.97
2019-01-19T11:30:33.041Z,5.30
2019-01-19T11:33:01.686Z,4.43
2019-01-19T11:35:30.942Z,3.30
2019-01-19T11:37:59.470Z,4.80
2019-01-19T11:40:33.569Z,6.00
2019-01-19T11:43:03.641Z,5.13
2019-01-19T11:45:32.066Z,5.57
2019-01-19T11:48:00.675Z,3.57
2019-01-19T11:50:29.907Z,2.67
2019-01-19T11:52:58.413Z,4.53
2019-01-19T11:55:27.092Z,3.27
2019-01-19T11:57:58.395Z,4.23
2019-01-19T12:00:29.294Z,4.73
2019-01-19T12:02:57.935Z,4.43
2019-01-19T12:05:26.474Z,2.73
2019-01-19T12:07:55.064Z,4.17
2019-01-19T12:10:31.433Z,3.07
2019-01-19T12:13:01.347Z,4.10
2019-01-19T12:15:29.998Z,4.60
2019-01-19T12:17:58.760Z,4.63
2019-01-19T12:20:30.042Z,3.30
2019-01-19T12:22:58.572Z,6.37
2019-01-19T12:25:27.176Z,5.37
2019-01-19T12:27:55.821Z,4.10
2019-01-19T12:30:32.104Z,4.93
2019-01-19T12:33:00.832Z,3.77
2019-01-19T12:35:30.070Z,5.43
2019-01-19T12:37:59.622Z,2.40
2019-01-19T12:40:29.838Z,3.87
2019-01-19T12:43:07.204Z,5.23
2019-01-19T12:45:38.891Z,5.00
2019-01-19T12:48:08.914Z,5.00
2019-01-19T12:50:37.506Z,3.80
2019-01-19T12:53:06.072Z,5.50
2019-01-19T12:55:34.598Z,4.77
2019-01-19T12:58:03.337Z,4.27
2019-01-19T13:00:31.872Z,5.37
2019-01-19T13:03:00.560Z,2.80
2019-01-19T13:05:34.901Z,2.57
2019-01-19T13:08:05.319Z,2.23
2019-01-19T13:10:42.875Z,3.63
2019-01-19T13:13:12.168Z,4.37
2019-01-19T13:15:49.410Z,4.27
2019-01-19T13:18:37.147Z,3.27
2019-01-19T13:21:11.415Z,5.33
2019-01-19T13:23:59.192Z,3.77
2019-01-19T13:26:45.723Z,4.37
2019-01-19T13:29:28.501Z,3.20
2019-01-19T13:32:14.694Z,3.83
2019-01-19T13:34:55.128Z,4.97
2019-01-19T13:37:44.037Z,4.80
2019-01-19T13:40:36.990Z,5.73
2019-01-19T13:43:20.154Z,4.37
2019-01-19T13:45:54.297Z,4.33
2019-01-19T13:48:37.599Z,5.20
2019-01-19T13:51:36.577Z,6.60
2019-01-19T13:54:27.055Z,3.70
2019-01-19T13:57:22.911Z,5.77
2019-01-19T14:00:00.310Z,3.00
2019-01-19T14:02:48.228Z,5.40
2019-01-19T14:05:34.763Z,6.93
2019-01-19T14:08:22.739Z,4.93
2019-01-19T14:11:02.791Z,4.43
2019-01-19T14:13:37.165Z,5.57
2019-01-19T14:16:31.238Z,5.13
2019-01-19T14:19:11.460Z,5.43
2019-01-19T14:22:03.571Z,4.43
2019-01-19T14:24:38.093Z,6.03
2019-01-19T14:27:18.643Z,3.60
2019-01-19T14:29:59.017Z,5.77
2019-01-19T14:32:45.379Z,5.93
2019-01-19T14:35:22.608Z,5.70
2019-01-19T14:38:22.854Z,5.93
2019-01-19T14:41:03.274Z,5.77
2019-01-19T14:43:40.912Z,5.50
2019-01-19T14:46:21.862Z,6.83
2019-01-19T14:49:14.674Z,8.43
2019-01-19T14:51:52.043Z,4.63
2019-01-19T14:54:46.708Z,7.97
2019-01-19T14:57:46.490Z,6.47
2019-01-19T15:00:17.970Z,8.23
2019-01-19T15:03:01.952Z,6.53
2019-01-19T15:05:33.482Z,8.90
2019-01-19T15:08:32.056Z,10.57
2019-01-19T15:11:18.538Z,9.03
2019-01-19T15:13:55.845Z,8.20
2019-01-19T15:16:45.627Z,9.30
2019-01-19T15:19:35.114Z,8.07
2019-01-19T15:22:30.139Z,8.87
2019-01-19T15:25:21.043Z,11.07
2019-01-19T15:27:52.610Z,9.97
2019-01-19T15:30:59.277Z,10.93
2019-01-19T15:33:33.827Z,10.00
2019-01-19T15:36:23.237Z,10.47
2019-01-19T15:39:00.374Z,9.03
2019-01-19T15:41:48.429Z,9.17
2019-01-19T15:44:31.821Z,10.77
2019-01-19T15:47:28.885Z,10.27
2019-01-19T15:50:03.118Z,8.93
2019-01-19T15:52:43.390Z,7.23
2019-01-19T15:55:31.975Z,11.60
2019-01-19T15:58:12.846Z,10.67
2019-01-19T16:00:44.407Z,8.30
2019-01-19T16:03:21.985Z,11.00
2019-01-19T16:06:10.455Z,9.07
2019-01-19T16:08:42.267Z,9.70
2019-01-19T16:11:19.264Z,10.20
2019-01-19T16:13:59.849Z,12.23
2019-01-19T16:16:31.354Z,9.20
2019-01-19T16:19:17.944Z,10.00
2019-01-19T16:22:16.290Z,12.93
2019-01-19T16:25:03.898Z,9.43
2019-01-19T16:27:41.198Z,10.70
2019-01-19T16:30:15.299Z,10.67
2019-01-19T16:33:05.238Z,10.60
2019-01-19T16:35:45.637Z,11.20
2019-01-19T16:38:22.732Z,9.97
2019-01-19T16:40:57.184Z,10.77
2019-01-19T16:43:37.557Z,10.07
2019-01-19T16:46:27.410Z,9.13
2019-01-19T16:49:04.778Z,12.37
2019-01-19T16:52:04.762Z,12.13
2019-01-19T16:54:55.813Z,11.40
2019-01-19T16:57:51.732Z,10.00
2019-01-19T17:00:35.191Z,8.40
2019-01-19T17:03:24.481Z,10.03
2019-01-19T17:06:10.729Z,11.33
2019-01-19T17:08:47.853Z,11.77
2019-01-19T17:11:28.147Z,12.40
2019-01-19T17:14:26.620Z,10.40
2019-01-19T17:17:10.235Z,11.53
2019-01-19T17:19:50.397Z,9.70
2019-01-19T17:22:21.938Z,11.93
2019-01-19T17:25:08.787Z,11.37
2019-01-19T17:27:49.484Z,9.97
2019-01-19T17:30:47.614Z,10.00
2019-01-19T17:33:21.971Z,14.73
2019-01-19T17:35:56.017Z,9.67
2019-01-19T17:38:33.163Z,11.33
2019-01-19T17:41:07.361Z,12.37
2019-01-19T17:43:41.481Z,11.33
2019-01-19T17:46:13.754Z,11.00
2019-01-19T17:48:51.339Z,9.70
2019-01-19T17:51:28.884Z,12.20
2019-01-19T17:54:00.365Z,10.93
2019-01-19T17:56:32.073Z,13.33
2019-01-19T17:59:21.798Z,13.37
2019-01-19T18:02:02.696Z,12.00
2019-01-19T18:04:42.595Z,12.03
2019-01-19T18:07:29.074Z,14.67
2019-01-19T18:10:14.646Z,12.93
2019-01-19T18:12:55.175Z,15.40
2019-01-19T18:15:50.412Z,12.77
2019-01-19T18:18:47.768Z,15.03
2019-01-19T18:21:43.702Z,15.17
2019-01-19T18:24:18.085Z,15.20
2019-01-19T18:26:52.661Z,14.20
2019-01-19T18:29:41.183Z,13.10
2019-01-19T18:32:15.452Z,11.97
2019-01-19T18:35:08.276Z,14.30
2019-01-19T18:37:42.598Z,15.33
2019-01-19T18:40:30.382Z,14.60
2019-01-19T18:43:23.079Z,14.90
2019-01-19T18:46:03.420Z,13.30
2019-01-19T18:48:46.480Z,12.50
2019-01-19T18:51:45.345Z,14.60
2019-01-19T18:54:19.367Z,15.17
2019-01-19T18:57:12.018Z,15.50
2019-01-19T18:59:45.341Z,15.13
2019-01-19T19:02:28.846Z,15.00
2019-01-19T19:05:21.479Z,18.13
2019-01-19T19:07:54.015Z,17.90
2019-01-19T19:10:44.825Z,18.47
2019-01-19T19:13:34.640Z,17.13
2019-01-19T19:16:06.293Z,15.67
2019-01-19T19:18:46.700Z,17.43
2019-01-19T19:21:24.056Z,17.23
2019-01-19T19:24:10.588Z,16.40
2019-01-19T19:26:42.203Z,16.43
2019-01-19T19:29:28.825Z,17.80
2019-01-19T19:32:12.405Z,16.03
2019-01-19T19:34:53.012Z,16.63
2019-01-19T19:37:33.554Z,19.50
2019-01-19T19:40:32.877Z,17.63
2019-01-19T19:43:07.496Z,22.20
2019-01-19T19:45:42.166Z,19.00
2019-01-19T19:48:16.690Z,17.57
2019-01-19T19:50:50.991Z,19.53
2019-01-19T19:53:19.544Z,21.70
2019-01-19T19:55:47.019Z,17.33
2019-01-19T19:58:15.701Z,18.97
2019-01-19T20:00:44.288Z,16.37
2019-01-19T20:03:12.942Z,17.63
2019-01-19T20:05:43.230Z,17.50
2019-01-19T20:08:11.920Z,16.63
2019-01-19T20:10:40.482Z,19.57
2019-01-19T20:13:09.213Z,17.07
2019-01-19T20:15:38.045Z,20.80
2019-01-19T20:18:06.908Z,18.90
2019-01-19T20:20:38.402Z,21.63
2019-01-19T20:23:07.101Z,18.17
2019-01-19T20:25:35.779Z,17.23
2019-01-19T20:28:04.479Z,19.27
2019-01-19T20:30:33.223Z,19.83
2019-01-19T20:33:02.197Z,19.27
2019-01-19T20:35:30.805Z,20.70
2019-01-19T20:37:59.739Z,18.87
2019-01-19T20:40:28.378Z,17.87
2019-01-19T20:42:57.013Z,19.60
2019-01-19T20:45:27.380Z,18.70
2019-01-19T20:47:55.977Z,18.67
2019-01-19T20:50:24.463Z,16.40
2019-01-19T20:52:53.284Z,17.90
2019-01-19T20:55:21.781Z,17.93
2019-01-19T20:57:50.264Z,19.27
2019-01-19T21:00:19.655Z,20.87
2019-01-19T21:02:48.248Z,21.27
2019-01-19T21:05:17.121Z,17.70
2019-01-19T21:07:45.810Z,19.30
2019-01-19T21:10:15.685Z,18.47
2019-01-19T21:12:44.631Z,21.83
2019-01-19T21:15:15.715Z,19.67
2019-01-19T21:17:44.423Z,18.53
2019-01-19T21:20:15.216Z,20.63
2019-01-19T21:22:45.030Z,20.23
2019-01-19T21:25:14.377Z,20.90
2019-01-19T21:27:42.942Z,19.27
2019-01-19T21:30:14.874Z,18.73
2019-01-19T21:32:43.533Z,20.93
2019-01-19T21:35:12.411Z,17.97
2019-01-19T21:37:41.178Z,19.63
2019-01-19T21:40:12.446Z,17.77
2019-01-19T21:42:41.039Z,19.13
2019-01-19T21:45:18.696Z,21.13
2019-01-19T21:47:47.287Z,18.77
2019-01-19T21:50:17.511Z,16.27
2019-01-19T21:52:46.019Z,22.83
2019-01-19T21:55:14.526Z,16.70
2019-01-19T21:57:43.181Z,18.23
2019-01-19T22:00:19.959Z,18.10
2019-01-19T22:02:48.523Z,16.63
2019-01-19T22:05:17.360Z,20.13
2019-01-19T22:07:46.030Z,17.03
2019-01-19T22:10:17.242Z,19.13
2019-01-19T22:12:45.695Z,25.17
2019-01-19T22:15:16.363Z,22.07
2019-01-19T22:17:44.805Z,20.50
2019-01-19T22:20:15.547Z,23.67
2019-01-19T22:22:44.151Z,17.77
2019-01-19T22:25:12.789Z,19.13
2019-01-19T22:27:43.210Z,21.77
2019-01-19T22:30:17.332Z,20.20
2019-01-19T22:32:46.305Z,20.80
2019-01-19T22:35:14.774Z,20.13
2019-01-19T22:37:43.321Z,20.97
2019-01-19T22:40:14.916Z,23.50
2019-01-19T22:42:43.684Z,19.87
2019-01-19T22:45:14.164Z,18.20
2019-01-19T22:47:42.741Z,18.27
2019-01-19T22:50:13.844Z,20.43
2019-01-19T22:52:42.373Z,19.63
2019-01-19T22:55:11.077Z,18.93
2019-01-19T22:57:39.634Z,18.63
2019-01-19T23:00:24.632Z,17.33
2019-01-19T23:02:53.170Z,19.00
2019-01-19T23:05:21.744Z,19.13
2019-01-19T23:07:50.173Z,18.10
2019-01-19T23:10:18.656Z,18.47
2019-01-19T23:12:47.176Z,20.53
2019-01-19T23:15:16.378Z,16.80
2019-01-19T23:17:44.871Z,20.13
2019-01-19T23:20:13.614Z,19.90
2019-01-19T23:22:42.231Z,22.10
2019-01-19T23:25:10.794Z,19.53
2019-01-19T23:27:39.402Z,17.73
2019-01-19T23:30:11.294Z,17.60
2019-01-19T23:32:39.905Z,18.40
2019-01-19T23:35:09.147Z,18.83
2019-01-19T23:37:40.368Z,18.60
2019-01-19T23:40:12.009Z,19.03
2019-01-19T23:42:47.121Z,20.43
2019-01-19T23:45:11.538Z,16.80
2019-01-19T23:47:41.529Z,21.77
2019-01-19T23:50:11.456Z,21.37
2019-01-19T23:52:40.334Z,19.63
2019-01-19T23:55:08.856Z,21.13
2019-01-19T23:57:37.998Z,22.03
